Time;durP1;ratioP1;P1;durP2;ratioP2;P2;SDS_P1;SDS_P2;PMS_P1;PMS_P2;Temp;Humidity;BMP_temperature;BMP_pressure;BME280_temperature;BME280_humidity;BME280_pressure;Samples;Min_cycle;Max_cycle;Signal;HPM_P1;HPM_P2
2024/02/09 00:00:45;;;;;;;1.60;1.20;;;11.00;98.20;;;;;;6180743;23;20400;-84
2024/02/09 00:03:21;;;;;;;1.60;1.20;;;11.00;98.20;;;;;;6138086;23;20451;-84
2024/02/09 00:05:52;;;;;;;1.60;1.13;;;11.00;98.20;;;;;;6186450;23;20447;-85
2024/02/09 00:08:24;;;;;;;1.70;1.43;;;11.00;98.20;;;;;;6157870;23;20428;-84
2024/02/09 00:13:42;;;;;;;1.57;1.10;;;11.10;98.20;;;;;;6167260;23;20415;-86
2024/02/09 00:16:25;;;;;;;1.60;1.20;;;11.00;98.20;;;;;;6176218;23;20445;-85
2024/02/09 00:19:03;;;;;;;1.70;1.47;;;11.00;98.20;;;;;;6182533;23;20427;-85
2024/02/09 00:21:33;;;;;;;1.60;1.10;;;11.00;98.20;;;;;;6162897;23;20527;-85
2024/02/09 00:26:56;;;;;;;1.60;1.10;;;11.00;98.20;;;;;;6151805;23;20845;-84
2024/02/09 00:29:23;;;;;;;1.60;1.20;;;11.00;98.20;;;;;;6181368;23;21117;-81
2024/02/09 00:31:52;;;;;;;1.57;1.10;;;11.00;98.20;;;;;;6182797;23;20478;-81
2024/02/09 00:34:22;;;;;;;1.60;1.10;;;11.00;98.20;;;;;;6201522;23;20983;-81
2024/02/09 00:36:49;;;;;;;1.57;1.00;;;11.00;98.20;;;;;;6187842;23;20443;-82
2024/02/09 00:39:16;;;;;;;1.60;1.10;;;11.00;98.20;;;;;;6201334;23;21172;-82
2024/02/09 00:41:43;;;;;;;1.60;1.20;;;11.00;98.20;;;;;;6189408;23;20535;-83
2024/02/09 00:44:10;;;;;;;1.60;1.20;;;10.90;98.20;;;;;;6224092;23;20419;-82
2024/02/09 00:46:42;;;;;;;1.60;1.10;;;10.90;98.20;;;;;;6211364;23;20452;-82
2024/02/09 00:49:10;;;;;;;1.57;1.10;;;10.90;98.20;;;;;;6203432;23;20493;-81
2024/02/09 00:51:36;;;;;;;1.60;1.10;;;10.90;98.20;;;;;;6186000;23;20470;-82
2024/02/09 00:54:03;;;;;;;1.60;1.10;;;10.90;98.20;;;;;;6198334;23;20506;-81
2024/02/09 00:56:30;;;;;;;1.60;1.10;;;10.90;98.20;;;;;;6189799;23;20543;-82
2024/02/09 00:58:57;;;;;;;1.70;1.50;;;10.90;98.20;;;;;;6198089;23;20435;-81
2024/02/09 01:01:24;;;;;;;1.60;1.20;;;10.80;98.20;;;;;;6191667;23;20983;-81
2024/02/09 01:03:53;;;;;;;1.60;1.07;;;10.80;98.20;;;;;;6196554;23;20462;-80
2024/02/09 01:06:21;;;;;;;1.60;1.13;;;10.70;98.20;;;;;;6192082;23;20444;-81
2024/02/09 01:08:48;;;;;;;1.60;1.10;;;10.70;98.20;;;;;;6195581;23;20470;-81
2024/02/09 01:11:16;;;;;;;1.60;1.10;;;10.70;98.20;;;;;;6191279;23;20448;-81
2024/02/09 02:46:37;;;;;;;1.60;1.10;;;10.60;98.20;;;;;;6183577;23;20221;-81
2024/02/09 03:05:32;;;;;;;1.60;1.10;;;10.60;98.20;;;;;;6214531;23;20430;-82
2024/02/09 03:08:00;;;;;;;1.60;1.20;;;10.60;98.20;;;;;;6172135;23;20454;-82
2024/02/09 03:10:26;;;;;;;1.60;1.20;;;10.70;98.20;;;;;;6212698;23;20518;-82
2024/02/09 03:12:54;;;;;;;1.60;1.00;;;10.70;98.20;;;;;;6168353;23;20971;-82
2024/02/09 03:15:23;;;;;;;1.70;1.43;;;10.70;98.20;;;;;;6213256;23;20411;-82
2024/02/09 03:17:51;;;;;;;1.60;1.23;;;10.70;98.20;;;;;;6172240;23;20451;-82
2024/02/09 03:20:19;;;;;;;1.60;1.17;;;10.80;98.20;;;;;;6212764;23;20434;-83
2024/02/09 03:22:46;;;;;;;1.60;1.20;;;10.80;98.20;;;;;;6171948;23;20531;-82
2024/02/09 03:25:13;;;;;;;1.60;1.10;;;10.80;98.20;;;;;;6213422;23;20451;-82
2024/02/09 03:27:42;;;;;;;1.60;1.20;;;10.80;98.20;;;;;;6174129;23;20477;-81
2024/02/09 03:30:10;;;;;;;1.60;1.10;;;10.80;98.20;;;;;;6214546;23;20836;-83
2024/02/09 03:32:44;;;;;;;1.57;1.00;;;10.80;98.20;;;;;;6172039;23;20765;-83
2024/02/09 03:35:12;;;;;;;1.60;1.10;;;10.80;98.20;;;;;;6212589;23;20402;-82
2024/02/09 03:37:42;;;;;;;1.60;1.10;;;10.80;98.20;;;;;;6172491;23;20455;-81
2024/02/09 03:40:10;;;;;;;1.60;1.00;;;10.70;98.20;;;;;;6221650;23;21006;-82
2024/02/09 03:42:37;;;;;;;1.60;1.10;;;10.70;98.20;;;;;;6173930;23;20494;-83
2024/02/09 03:45:06;;;;;;;1.60;1.10;;;10.70;98.20;;;;;;6213917;23;20450;-82
2024/02/09 03:47:34;;;;;;;1.60;1.10;;;10.70;98.20;;;;;;6177762;23;20451;-82
2024/02/09 03:50:04;;;;;;;1.60;1.10;;;10.70;98.20;;;;;;6212053;23;20653;-82
2024/02/09 03:52:31;;;;;;;1.60;1.10;;;10.70;98.20;;;;;;6176917;23;20471;-82
2024/02/09 03:54:58;;;;;;;1.60;1.10;;;10.60;98.20;;;;;;6211864;23;20641;-82
2024/02/09 03:57:26;;;;;;;1.60;1.10;;;10.60;98.20;;;;;;6181172;23;20458;-82
2024/02/09 03:59:53;;;;;;;1.60;1.10;;;10.50;98.20;;;;;;6220483;23;20522;-82
2024/02/09 04:02:21;;;;;;;1.70;1.50;;;10.50;98.20;;;;;;6176537;23;20448;-83
2024/02/09 04:04:48;;;;;;;1.60;1.20;;;10.50;98.20;;;;;;6218810;23;20422;-82
2024/02/09 04:07:20;;;;;;;1.60;1.10;;;10.40;98.20;;;;;;6180970;23;20810;-82
2024/02/09 04:09:50;;;;;;;1.60;1.10;;;10.40;98.20;;;;;;6210587;23;20439;-83
2024/02/09 04:12:18;;;;;;;1.60;1.20;;;10.40;98.20;;;;;;6180143;23;20860;-82
2024/02/09 04:14:45;;;;;;;1.60;1.10;;;10.30;98.20;;;;;;6208297;23;20449;-82
2024/02/09 04:17:11;;;;;;;1.60;1.10;;;10.30;98.20;;;;;;6181639;23;20539;-82
2024/02/09 04:19:39;;;;;;;1.60;1.10;;;10.30;98.20;;;;;;6208020;23;20838;-82
2024/02/09 04:22:08;;;;;;;1.60;1.10;;;10.30;98.20;;;;;;6183510;23;20448;-83
2024/02/09 04:24:37;;;;;;;1.60;1.10;;;10.30;98.20;;;;;;6207001;23;20430;-83
2024/02/09 04:27:07;;;;;;;1.60;1.10;;;10.30;98.20;;;;;;6189366;23;20448;-82
2024/02/09 04:29:35;;;;;;;1.60;1.20;;;10.30;98.20;;;;;;6206151;23;20454;-83
2024/02/09 04:32:04;;;;;;;1.60;1.10;;;10.30;98.20;;;;;;6182905;23;20448;-81
2024/02/09 04:34:31;;;;;;;1.60;1.20;;;10.20;98.20;;;;;;6205303;23;20943;-82
2024/02/09 04:36:59;;;;;;;1.60;1.10;;;10.20;98.20;;;;;;6185743;23;20498;-82
2024/02/09 04:39:27;;;;;;;1.60;1.10;;;10.20;98.20;;;;;;6214549;23;20939;-82
2024/02/09 04:41:55;;;;;;;1.60;1.10;;;10.20;98.20;;;;;;6183598;23;20452;-82
2024/02/09 04:44:23;;;;;;;1.60;1.10;;;10.30;98.20;;;;;;6212880;23;20446;-83
2024/02/09 04:46:50;;;;;;;1.60;1.10;;;10.30;98.20;;;;;;6185170;23;20482;-82
2024/02/09 04:49:17;;;;;;;1.60;1.10;;;10.30;98.20;;;;;;6202098;23;20784;-82
2024/02/09 04:51:45;;;;;;;1.60;1.27;;;10.30;98.20;;;;;;6184879;23;20472;-82
2024/02/09 04:54:13;;;;;;;1.60;1.20;;;10.30;98.20;;;;;;6201369;23;20836;-82
2024/02/09 04:56:40;;;;;;;1.60;1.10;;;10.40;98.20;;;;;;6187019;23;20803;-83
2024/02/09 04:59:09;;;;;;;1.60;1.10;;;10.40;98.20;;;;;;6201752;23;20527;-82
2024/02/09 05:01:38;;;;;;;1.60;1.20;;;10.40;98.20;;;;;;6187675;23;20448;-83
2024/02/09 05:04:07;;;;;;;1.90;1.70;;;10.50;98.20;;;;;;6199372;23;20419;-82
2024/02/09 05:06:34;;;;;;;1.60;1.20;;;10.50;98.20;;;;;;6189139;23;20497;-82
2024/02/09 05:09:00;;;;;;;1.70;1.60;;;10.50;98.20;;;;;;6200349;23;20746;-82
2024/02/09 05:11:29;;;;;;;1.60;1.07;;;10.60;98.20;;;;;;6197398;23;20456;-81
2024/02/09 05:13:57;;;;;;;1.60;1.10;;;10.60;98.20;;;;;;6198709;23;20426;-82
2024/02/09 05:16:25;;;;;;;1.60;1.10;;;10.60;98.20;;;;;;6199894;23;20439;-81
2024/02/09 05:18:52;;;;;;;1.60;1.10;;;10.50;98.20;;;;;;6195876;23;20806;-81
2024/02/09 05:21:19;;;;;;;1.60;1.10;;;10.50;98.20;;;;;;6202157;23;20695;-82
2024/02/09 05:23:46;;;;;;;1.60;1.20;;;10.50;98.20;;;;;;6209688;23;20414;-81
2024/02/09 05:26:14;;;;;;;1.60;1.10;;;10.50;98.20;;;;;;6213633;23;20523;-81
2024/02/09 05:28:43;;;;;;;1.60;1.10;;;10.50;98.20;;;;;;6208024;23;20466;-82
2024/02/09 05:31:13;;;;;;;1.60;1.10;;;10.40;98.20;;;;;;6206856;23;20440;-81
2024/02/09 05:33:41;;;;;;;1.60;1.10;;;10.40;98.20;;;;;;6206915;23;20481;-81
2024/02/09 05:36:08;;;;;;;1.60;1.10;;;10.50;98.20;;;;;;6198865;23;20442;-81
2024/02/09 05:38:36;;;;;;;1.60;1.20;;;10.40;98.20;;;;;;6204688;23;20474;-83
2024/02/09 05:41:03;;;;;;;1.60;1.13;;;10.50;98.20;;;;;;6195023;23;20426;-83
2024/02/09 05:43:31;;;;;;;1.60;1.20;;;10.50;98.20;;;;;;6190538;23;20423;-82
2024/02/09 05:45:57;;;;;;;3.00;2.80;;;10.50;98.20;;;;;;6197432;23;20538;-83
2024/02/09 05:48:24;;;;;;;1.57;1.10;;;10.50;98.20;;;;;;6190612;23;20419;-83
2024/02/09 05:50:55;;;;;;;1.60;1.20;;;10.50;98.20;;;;;;6198161;23;20422;-82
2024/02/09 05:53:22;;;;;;;1.60;1.20;;;10.60;98.20;;;;;;6199142;23;20396;-82
2024/02/09 05:55:49;;;;;;;1.60;1.20;;;10.60;98.20;;;;;;6208542;23;20419;-83
2024/02/09 05:58:15;;;;;;;1.60;1.00;;;10.60;98.20;;;;;;6188447;23;20431;-83
2024/02/09 06:00:43;;;;;;;5.10;3.90;;;10.60;98.20;;;;;;6216020;23;20451;-82
2024/02/09 06:03:10;;;;;;;1.60;1.20;;;10.70;98.20;;;;;;6176330;23;20521;-81
2024/02/09 06:05:40;;;;;;;1.60;1.20;;;10.70;98.20;;;;;;6229114;23;20422;-81
2024/02/09 06:08:09;;;;;;;1.60;1.10;;;10.70;98.20;;;;;;6175953;23;20511;-82
2024/02/09 06:10:36;;;;;;;1.60;1.20;;;10.70;98.20;;;;;;6227153;23;20443;-81
2024/02/09 06:13:03;;;;;;;1.60;1.10;;;10.70;98.20;;;;;;6175839;23;20448;-81
2024/02/09 06:15:30;;;;;;;1.57;1.10;;;10.80;98.20;;;;;;6217404;23;20420;-85
2024/02/09 06:18:02;;;;;;;1.57;1.10;;;10.80;98.20;;;;;;6176862;23;20452;-82
2024/02/09 06:20:30;;;;;;;1.60;1.10;;;10.80;98.20;;;;;;6226892;23;20785;-82
2024/02/09 06:22:57;;;;;;;1.60;1.20;;;10.90;98.20;;;;;;6176111;23;20479;-82
2024/02/09 06:25:27;;;;;;;1.60;1.10;;;10.90;98.20;;;;;;6217322;23;20510;-83
2024/02/09 06:27:54;;;;;;;1.60;1.20;;;10.90;98.20;;;;;;6176143;23;20444;-82
2024/02/09 06:30:22;;;;;;;1.53;1.10;;;10.90;98.20;;;;;;6210109;23;20822;-85
2024/02/09 06:32:48;;;;;;;1.60;1.20;;;10.90;98.20;;;;;;6170176;23;20447;-82
2024/02/09 06:35:15;;;;;;;1.60;1.20;;;10.90;98.20;;;;;;6222554;23;20481;-82
2024/02/09 06:37:42;;;;;;;1.60;1.20;;;10.90;98.20;;;;;;6173354;23;21242;-82
2024/02/09 06:40:16;;;;;;;1.60;1.10;;;11.00;98.20;;;;;;6212783;23;20514;-83
2024/02/09 06:42:44;;;;;;;1.60;1.10;;;11.00;98.20;;;;;;6177533;23;20443;-83
2024/02/09 06:45:17;;;;;;;1.57;1.00;;;11.00;98.20;;;;;;6213191;23;20506;-82
2024/02/09 06:47:44;;;;;;;1.60;1.10;;;11.10;98.20;;;;;;6170651;23;20566;-85
2024/02/09 06:50:11;;;;;;;1.60;1.20;;;11.10;98.20;;;;;;6211065;23;21129;-83
2024/02/09 06:52:40;;;;;;;1.60;1.10;;;11.10;98.20;;;;;;6171334;23;20463;-82
2024/02/09 06:55:11;;;;;;;1.60;1.00;;;11.20;98.20;;;;;;6208705;23;20454;-83
2024/02/09 06:57:43;;;;;;;1.60;1.10;;;11.20;98.20;;;;;;6175167;23;20456;-84
2024/02/09 07:00:14;;;;;;;1.60;1.20;;;11.20;98.20;;;;;;6210755;23;20501;-82
2024/02/09 07:02:41;;;;;;;1.53;1.10;;;11.20;98.20;;;;;;6169196;23;20452;-84
2024/02/09 07:05:11;;;;;;;1.60;1.10;;;11.20;98.20;;;;;;6219236;23;20411;-83
2024/02/09 07:07:43;;;;;;;1.60;1.13;;;11.20;98.20;;;;;;6175039;23;20814;-83
2024/02/09 07:10:16;;;;;;;1.60;1.10;;;11.20;98.20;;;;;;6223797;23;20443;-83
2024/02/09 07:12:43;;;;;;;1.60;1.10;;;11.30;98.20;;;;;;6176581;23;20506;-85
2024/02/09 07:15:16;;;;;;;1.60;1.10;;;11.30;98.20;;;;;;6212839;23;20423;-83
2024/02/09 07:17:47;;;;;;;1.60;1.10;;;11.30;98.20;;;;;;6177159;23;20551;-84
2024/02/09 07:23:10;;;;;;;1.60;1.20;;;11.40;98.20;;;;;;6069081;23;20450;-87
2024/02/09 07:25:39;;;;;;;1.60;1.00;;;11.40;98.20;;;;;;6225416;23;20521;-84
2024/02/09 07:28:06;;;;;;;1.60;1.00;;;11.40;98.20;;;;;;6172519;23;20806;-84
2024/02/09 07:30:34;;;;;;;1.60;1.20;;;11.40;98.20;;;;;;6214617;23;20454;-84
2024/02/09 07:33:01;;;;;;;1.60;1.10;;;11.30;98.20;;;;;;6170121;23;20954;-85
2024/02/09 07:35:28;;;;;;;1.60;1.13;;;11.30;98.20;;;;;;6214845;23;20497;-84
2024/02/09 07:37:55;;;;;;;1.57;1.00;;;11.20;98.20;;;;;;6168754;23;20455;-84
2024/02/09 07:40:22;;;;;;;1.60;1.10;;;11.20;98.20;;;;;;6211648;23;20470;-85
2024/02/09 07:42:48;;;;;;;1.57;1.10;;;11.10;98.20;;;;;;6161233;23;20530;-82
2024/02/09 07:45:16;;;;;;;1.60;1.10;;;11.20;98.20;;;;;;6213296;23;20705;-82
2024/02/09 07:47:48;;;;;;;1.60;1.20;;;11.20;98.20;;;;;;6172722;23;20599;-81
2024/02/09 07:50:22;;;;;;;1.60;1.10;;;11.20;98.20;;;;;;6183341;23;20439;-82
2024/02/09 07:52:54;;;;;;;1.57;1.10;;;11.20;98.20;;;;;;6166481;23;20846;-82
2024/02/09 07:55:22;;;;;;;1.60;1.10;;;11.20;98.20;;;;;;6220111;23;20888;-81
2024/02/09 08:00:46;;;;;;;1.60;1.20;;;11.20;98.20;;;;;;6200269;23;20536;-82
2024/02/09 08:03:15;;;;;;;1.60;1.10;;;11.20;98.20;;;;;;6170927;23;20434;-81
2024/02/09 08:05:56;;;;;;;1.60;1.00;;;11.20;98.20;;;;;;6222559;23;20414;-83
2024/02/09 08:08:24;;;;;;;1.60;1.20;;;11.10;98.20;;;;;;6173121;23;20446;-82
2024/02/09 08:10:54;;;;;;;1.60;1.10;;;11.10;98.20;;;;;;6201530;23;20817;-81
2024/02/09 08:13:23;;;;;;;1.50;1.00;;;11.10;98.20;;;;;;6192132;23;20419;-82
2024/02/09 08:16:03;;;;;;;1.60;1.10;;;11.10;98.20;;;;;;6201932;23;20534;-83
2024/02/09 08:18:36;;;;;;;1.60;1.10;;;11.10;98.20;;;;;;6195083;23;20926;-82
2024/02/09 08:21:03;;;;;;;1.60;1.10;;;11.00;98.20;;;;;;6197728;23;20429;-82
2024/02/09 08:23:30;;;;;;;1.57;1.10;;;11.00;98.20;;;;;;6189942;23;20442;-82
2024/02/09 08:25:58;;;;;;;1.60;1.20;;;11.00;98.20;;;;;;6202397;23;20481;-81
2024/02/09 08:31:53;;;;;;;1.60;1.13;;;10.90;98.20;;;;;;6133053;23;20469;-82
2024/02/09 08:34:39;;;;;;;1.57;1.07;;;10.90;98.20;;;;;;6200215;23;20923;-81
2024/02/09 08:37:22;;;;;;;1.50;1.00;;;10.90;98.20;;;;;;6175728;23;20522;-81
2024/02/09 08:39:53;;;;;;;1.60;1.00;;;10.90;98.20;;;;;;6210985;23;20499;-81
2024/02/09 08:45:45;;;;;;;1.60;1.10;;;10.90;98.20;;;;;;6220477;23;20565;-80
2024/02/09 08:48:21;;;;;;;1.60;1.10;;;10.90;98.20;;;;;;6168306;23;20438;-81
2024/02/09 08:50:57;;;;;;;1.60;1.10;;;10.90;98.20;;;;;;6203411;23;20843;-82
2024/02/09 08:53:24;;;;;;;1.60;1.07;;;11.00;98.20;;;;;;6183718;23;20438;-81
2024/02/09 08:55:51;;;;;;;1.60;1.10;;;11.00;98.20;;;;;;6199689;23;20784;-82
2024/02/09 08:58:19;;;;;;;1.60;1.00;;;11.10;98.20;;;;;;6189374;23;20403;-81
2024/02/09 09:00:47;;;;;;;1.60;1.00;;;11.10;98.20;;;;;;6206223;23;20449;-82
2024/02/09 09:03:17;;;;;;;1.60;1.10;;;11.20;98.20;;;;;;6164143;23;20473;-81
2024/02/09 09:05:57;;;;;;;1.60;1.10;;;11.30;98.20;;;;;;6215602;23;20413;-83
2024/02/09 09:08:24;;;;;;;1.57;1.00;;;11.30;98.20;;;;;;6165388;23;20473;-81
2024/02/09 09:10:54;;;;;;;1.57;1.00;;;11.40;98.20;;;;;;6203425;23;20414;-82
2024/02/09 09:13:26;;;;;;;1.60;1.20;;;11.40;98.20;;;;;;6193347;23;20425;-82
2024/02/09 09:16:04;;;;;;;1.60;1.20;;;11.50;98.20;;;;;;6199338;23;20454;-82
2024/02/09 09:18:39;;;;;;;1.60;1.10;;;11.50;98.20;;;;;;6184920;23;20800;-82
2024/02/09 09:24:13;;;;;;;1.60;1.10;;;11.60;98.20;;;;;;6187673;23;21007;-83
2024/02/09 09:26:45;;;;;;;1.60;1.00;;;11.70;98.20;;;;;;6186441;23;20475;-80
2024/02/09 09:29:13;;;;;;;1.60;1.10;;;11.80;98.20;;;;;;6203703;23;20439;-81
2024/02/09 09:31:41;;;;;;;1.60;1.10;;;11.90;98.20;;;;;;6184898;23;20487;-82
2024/02/09 09:34:08;;;;;;;1.60;1.10;;;12.00;98.20;;;;;;6191586;23;20454;-82
2024/02/09 09:36:36;;;;;;;1.60;1.00;;;12.10;98.20;;;;;;6177824;23;20451;-82
2024/02/09 09:39:05;;;;;;;1.60;1.07;;;12.20;98.20;;;;;;6189316;23;20435;-82
2024/02/09 09:41:35;;;;;;;1.60;1.10;;;12.20;98.20;;;;;;6178723;23;20448;-82
2024/02/09 09:44:02;;;;;;;1.60;1.10;;;12.30;98.20;;;;;;6188428;23;20468;-82
2024/02/09 09:46:31;;;;;;;1.60;1.00;;;12.30;98.20;;;;;;6180874;23;20451;-82
2024/02/09 09:48:58;;;;;;;1.60;1.10;;;12.30;98.20;;;;;;6199498;23;20787;-82
2024/02/09 09:51:44;;;;;;;1.60;1.00;;;12.40;98.20;;;;;;6180359;23;20801;-82
2024/02/09 09:54:20;;;;;;;1.60;1.23;;;12.40;98.20;;;;;;6190165;23;20958;-81
2024/02/09 10:03:37;;;;;;;1.60;1.20;;;12.50;98.20;;;;;;5937919;24;20536;-81
2024/02/09 10:06:16;;;;;;;1.60;1.00;;;12.50;98.20;;;;;;5927720;24;20541;-82
2024/02/09 10:08:43;;;;;;;1.60;1.10;;;12.50;98.20;;;;;;6019455;23;20459;-81
2024/02/09 10:11:12;;;;;;;1.60;1.00;;;12.50;98.20;;;;;;6166335;23;20487;-82
2024/02/09 10:13:42;;;;;;;1.60;1.00;;;12.50;98.20;;;;;;6166997;23;20420;-81
2024/02/09 10:16:10;;;;;;;1.60;1.10;;;12.50;98.20;;;;;;6170967;23;20622;-82
2024/02/09 10:18:38;;;;;;;1.60;1.10;;;12.40;98.20;;;;;;6164112;23;20424;-80
2024/02/09 10:21:08;;;;;;;1.60;1.13;;;12.40;98.20;;;;;;6155980;23;20420;-82
2024/02/09 10:23:37;;;;;;;1.60;1.10;;;12.40;98.20;;;;;;6155589;23;20824;-80
2024/02/09 10:26:05;;;;;;;1.60;1.00;;;12.40;98.20;;;;;;6157692;23;20491;-80
2024/02/09 10:28:34;;;;;;;1.60;1.00;;;12.40;98.20;;;;;;6152852;23;20448;-80
2024/02/09 10:31:03;;;;;;;1.60;1.00;;;12.40;98.20;;;;;;6158687;23;20498;-82
2024/02/09 10:33:30;;;;;;;1.60;1.00;;;12.40;98.20;;;;;;6150303;23;20458;-82
2024/02/09 10:36:27;;;;;;;1.60;1.10;;;12.40;98.20;;;;;;6159440;23;20483;-84
2024/02/09 10:38:58;;;;;;;1.60;1.00;;;12.50;98.20;;;;;;6160568;23;20444;-81
2024/02/09 10:41:31;;;;;;;1.60;1.00;;;12.50;98.20;;;;;;6153549;23;20452;-81
2024/02/09 10:44:01;;;;;;;1.60;1.10;;;12.50;98.20;;;;;;6158232;23;20586;-81
2024/02/09 10:46:30;;;;;;;1.60;1.10;;;12.50;98.20;;;;;;6152806;23;20527;-81
2024/02/09 10:48:59;;;;;;;1.60;1.00;;;12.40;98.20;;;;;;6158042;23;20513;-81
2024/02/09 10:51:30;;;;;;;1.57;1.00;;;12.50;98.20;;;;;;6161247;23;20445;-82
2024/02/09 10:54:01;;;;;;;1.57;1.07;;;12.50;98.20;;;;;;6169746;23;20462;-82
2024/02/09 10:56:33;;;;;;;1.60;1.00;;;12.50;98.20;;;;;;6159953;23;21058;-82
2024/02/09 11:03:19;;;;;;;1.60;1.00;;;12.50;98.20;;;;;;6092004;23;20729;-81
2024/02/09 11:20:38;;;;;;;1.60;1.10;;;12.50;98.20;;;;;;6205411;23;20462;-81
2024/02/09 11:23:54;;;;;;;1.60;1.00;;;12.50;98.20;;;;;;6124272;23;20433;-81
2024/02/09 11:27:15;;;;;;;1.60;1.10;;;12.50;98.20;;;;;;6066292;23;20464;-81
2024/02/09 11:29:50;;;;;;;1.60;1.10;;;12.50;98.20;;;;;;6207143;23;20443;-81
2024/02/09 11:47:50;;;;;;;1.60;1.10;;;12.60;98.20;;;;;;6146029;23;20506;-80
2024/02/09 11:50:57;;;;;;;1.60;1.10;;;12.70;98.20;;;;;;6222289;23;20469;-81
2024/02/09 12:00:15;;;;;;;1.70;1.37;;;12.70;98.20;;;;;;6058388;23;20521;-80
2024/02/09 12:02:43;;;;;;;1.60;1.10;;;12.70;98.20;;;;;;6166940;23;20455;-82
2024/02/09 12:05:39;;;;;;;1.60;1.10;;;12.80;98.20;;;;;;6214525;23;20426;-83
2024/02/09 12:14:25;;;;;;;1.60;1.10;;;12.80;98.20;;;;;;6010642;23;20449;-81
2024/02/09 12:37:15;;;;;;;1.60;1.10;;;13.00;98.20;;;;;;6119786;23;20440;-81
2024/02/09 12:43:19;;;;;;;1.60;1.00;;;13.10;98.20;;;;;;6122169;23;20447;-81
2024/02/09 12:45:47;;;;;;;1.60;1.00;;;13.10;98.20;;;;;;6229116;23;20423;-81
2024/02/09 12:48:20;;;;;;;1.60;1.00;;;13.20;98.20;;;;;;6180999;23;20509;-82
2024/02/09 12:50:47;;;;;;;1.60;1.10;;;13.30;98.20;;;;;;6181534;23;20474;-83
2024/02/09 12:53:17;;;;;;;1.60;1.00;;;13.30;98.20;;;;;;6152322;23;20435;-81
2024/02/09 12:55:46;;;;;;;1.60;1.00;;;13.30;98.20;;;;;;6187821;23;20412;-82
2024/02/09 12:58:13;;;;;;;1.60;1.00;;;13.40;98.20;;;;;;6140486;23;20468;-84
2024/02/09 13:00:41;;;;;;;1.60;1.00;;;13.40;98.20;;;;;;6192627;23;20439;-81
2024/02/09 13:03:12;;;;;;;1.60;1.00;;;13.40;98.20;;;;;;6136294;23;20551;-83
2024/02/09 13:05:41;;;;;;;1.60;1.10;;;13.40;98.20;;;;;;6186726;23;20431;-83
2024/02/09 13:08:14;;;;;;;1.60;1.00;;;13.40;98.20;;;;;;6136613;23;20543;-83
2024/02/09 13:10:46;;;;;;;1.60;1.00;;;13.50;98.20;;;;;;6187016;23;20443;-81
2024/02/09 13:13:18;;;;;;;1.60;1.10;;;13.50;98.20;;;;;;6136614;23;20523;-83
2024/02/09 13:15:46;;;;;;;1.60;1.00;;;13.50;98.20;;;;;;6186703;23;20496;-82
2024/02/09 13:18:13;;;;;;;1.60;1.00;;;13.50;98.20;;;;;;6137588;23;20510;-81
2024/02/09 13:20:42;;;;;;;1.60;1.00;;;13.50;98.20;;;;;;6177922;23;20463;-83
2024/02/09 13:23:11;;;;;;;1.60;1.00;;;13.50;98.20;;;;;;6135338;23;20465;-83
2024/02/09 13:25:41;;;;;;;1.60;1.00;;;13.50;98.20;;;;;;6187309;23;20424;-84
2024/02/09 13:28:21;;;;;;;1.60;1.10;;;13.50;98.20;;;;;;6136945;23;20448;-82
2024/02/09 13:30:49;;;;;;;1.60;1.00;;;13.50;98.20;;;;;;6176309;23;20427;-83
2024/02/09 13:33:16;;;;;;;1.60;1.00;;;13.50;98.20;;;;;;6151129;23;20498;-82
2024/02/09 13:35:54;;;;;;;1.60;1.00;;;13.50;98.20;;;;;;6179870;23;20779;-82
2024/02/09 13:38:22;;;;;;;1.60;1.00;;;13.50;98.20;;;;;;6133977;23;20932;-81
2024/02/09 13:40:57;;;;;;;1.60;1.10;;;13.50;98.20;;;;;;6169896;23;20510;-81
2024/02/09 13:43:27;;;;;;;1.60;1.10;;;13.50;98.20;;;;;;6164002;23;20498;-82
2024/02/09 13:45:55;;;;;;;1.60;1.00;;;13.50;98.20;;;;;;6168987;23;20420;-82
2024/02/09 13:48:23;;;;;;;1.60;1.10;;;13.50;98.20;;;;;;6150760;23;20448;-83
2024/02/09 13:51:00;;;;;;;1.70;1.20;;;13.50;98.20;;;;;;6162245;23;20873;-82
2024/02/09 13:56:18;;;;;;;1.60;0.93;;;13.50;98.20;;;;;;6181098;23;20530;-77
2024/02/09 13:58:47;;;;;;;1.60;1.00;;;13.50;98.20;;;;;;6176018;23;20436;-78
2024/02/09 14:01:15;;;;;;;1.60;1.00;;;13.50;98.20;;;;;;6149749;23;20480;-77
2024/02/09 14:03:42;;;;;;;1.60;1.00;;;13.50;98.20;;;;;;6152341;23;20435;-77
2024/02/09 14:06:09;;;;;;;1.60;1.00;;;13.50;98.20;;;;;;6151196;23;20444;-78
2024/02/09 14:08:36;;;;;;;1.60;1.00;;;13.50;98.20;;;;;;6160464;23;21189;-77
2024/02/09 14:11:04;;;;;;;1.60;1.07;;;13.50;98.20;;;;;;6153716;23;20458;-77
2024/02/09 14:13:32;;;;;;;1.60;1.00;;;13.50;98.20;;;;;;6149423;23;20486;-77
2024/02/09 14:16:00;;;;;;;1.60;1.10;;;13.40;98.20;;;;;;6155011;23;20935;-77
2024/02/09 14:18:27;;;;;;;1.60;1.00;;;13.40;98.20;;;;;;6148096;23;20420;-77
2024/02/09 14:20:54;;;;;;;1.60;1.00;;;13.40;98.20;;;;;;6155707;23;20530;-78
2024/02/09 14:23:21;;;;;;;1.60;1.00;;;13.40;98.20;;;;;;6148298;23;20428;-77
2024/02/09 14:25:48;;;;;;;1.60;1.00;;;13.40;98.20;;;;;;6166323;23;20795;-78
2024/02/09 14:28:16;;;;;;;1.60;1.00;;;13.40;98.20;;;;;;6146396;23;20995;-77
2024/02/09 14:30:44;;;;;;;1.60;1.10;;;13.40;98.20;;;;;;6171850;23;20474;-79
2024/02/09 14:33:12;;;;;;;1.60;1.00;;;13.40;98.20;;;;;;6130694;23;20447;-78
2024/02/09 14:35:39;;;;;;;1.60;1.00;;;13.40;98.20;;;;;;6173484;23;20466;-78
2024/02/09 14:38:06;;;;;;;1.60;1.00;;;13.40;98.20;;;;;;6129898;23;20459;-77
2024/02/09 14:40:34;;;;;;;1.60;1.00;;;13.40;98.20;;;;;;6181314;23;20444;-77
2024/02/09 14:43:01;;;;;;;1.60;1.00;;;13.40;98.20;;;;;;6129745;23;20490;-78
2024/02/09 14:45:28;;;;;;;1.60;1.10;;;13.40;98.20;;;;;;6172309;23;20426;-78
2024/02/09 14:47:57;;;;;;;1.60;1.10;;;13.40;98.20;;;;;;6129213;23;20464;-78
2024/02/09 14:50:28;;;;;;;1.60;1.00;;;13.40;98.20;;;;;;6171929;23;20456;-78
2024/02/09 14:52:56;;;;;;;1.57;1.00;;;13.40;98.20;;;;;;6129521;23;20460;-78
2024/02/09 14:55:23;;;;;;;1.60;1.10;;;13.40;98.20;;;;;;6171811;23;20466;-77
2024/02/09 14:57:51;;;;;;;1.60;1.00;;;13.40;98.20;;;;;;6131260;23;20456;-77
2024/02/09 15:00:19;;;;;;;1.60;1.13;;;13.30;98.20;;;;;;6170679;23;20498;-77
2024/02/09 15:02:47;;;;;;;1.53;1.00;;;13.30;98.20;;;;;;6129404;23;20549;-78
2024/02/09 15:05:15;;;;;;;1.60;1.00;;;13.30;98.20;;;;;;6170798;23;20429;-77
2024/02/09 15:08:12;;;;;;;1.60;1.10;;;13.30;98.20;;;;;;6134947;23;20459;-81
2024/02/09 15:17:25;;;;;;;1.57;1.00;;;13.30;98.20;;;;;;6103686;23;20452;-81
2024/02/09 15:20:31;;;;;;;1.60;1.00;;;13.20;98.20;;;;;;6133228;23;20447;-79
2024/02/09 15:23:26;;;;;;;1.60;1.10;;;13.20;98.20;;;;;;6106332;23;20454;-81
2024/02/09 15:26:14;;;;;;;1.60;1.10;;;13.20;98.20;;;;;;6117347;23;20429;-81
2024/02/09 15:29:01;;;;;;;1.60;0.93;;;13.20;98.20;;;;;;6161232;22;20501;-79
2024/02/09 15:31:31;;;;;;;1.60;1.10;;;13.10;98.20;;;;;;6190905;23;20522;-82
2024/02/09 15:34:15;;;;;;;1.60;1.10;;;13.10;98.20;;;;;;6201822;23;20834;-82
2024/02/09 15:36:48;;;;;;;1.60;1.00;;;13.10;98.20;;;;;;6176950;23;20523;-79
2024/02/09 15:39:31;;;;;;;1.60;1.00;;;13.10;98.20;;;;;;6182692;23;20491;-81
2024/02/09 15:42:06;;;;;;;1.60;1.10;;;13.10;98.20;;;;;;6183979;23;20796;-80
2024/02/09 15:44:45;;;;;;;1.57;1.00;;;13.10;98.20;;;;;;6201223;23;20427;-80
2024/02/09 15:47:16;;;;;;;1.60;1.00;;;13.10;98.20;;;;;;6183113;23;20971;-82
2024/02/09 15:49:49;;;;;;;1.57;1.00;;;13.10;98.20;;;;;;6197519;23;20459;-80
2024/02/09 15:52:44;;;;;;;1.60;1.03;;;13.10;98.20;;;;;;6169223;23;20462;-82
2024/02/09 15:55:32;;;;;;;1.60;1.00;;;13.00;98.20;;;;;;6175279;23;20474;-80
2024/02/09 15:58:03;;;;;;;1.60;1.00;;;13.00;98.20;;;;;;6167835;23;20451;-80
2024/02/09 16:00:34;;;;;;;1.60;1.10;;;13.00;98.20;;;;;;6194597;23;20795;-80
2024/02/09 16:03:31;;;;;;;1.60;1.20;;;12.90;98.20;;;;;;6168526;23;20448;-79
2024/02/09 16:06:08;;;;;;;1.60;1.00;;;12.90;98.20;;;;;;6175123;23;20430;-79
2024/02/09 16:08:44;;;;;;;1.57;1.00;;;12.90;98.20;;;;;;6190721;23;20509;-82
2024/02/09 16:14:26;;;;;;;1.57;1.00;;;12.90;98.20;;;;;;6134202;23;20420;-79
2024/02/09 16:20:08;;;;;;;1.60;1.00;;;12.80;98.20;;;;;;6164628;23;20436;-78
2024/02/09 16:23:21;;;;;;;1.57;1.00;;;12.80;98.20;;;;;;6157258;23;20546;-81
2024/02/09 16:26:05;;;;;;;1.70;1.47;;;12.70;98.20;;;;;;6154708;23;20482;-80
2024/02/09 16:29:13;;;;;;;1.60;1.00;;;12.70;98.20;;;;;;6188183;23;20439;-79
2024/02/09 16:32:04;;;;;;;1.60;1.00;;;12.70;98.20;;;;;;6169965;23;20448;-79
2024/02/09 16:34:39;;;;;;;1.60;1.07;;;12.60;98.20;;;;;;6191278;23;20424;-80
2024/02/09 16:40:29;;;;;;;1.60;1.30;;;12.60;98.20;;;;;;6150117;23;21004;-79
2024/02/09 16:43:09;;;;;;;1.60;1.10;;;12.60;98.20;;;;;;6134752;23;20532;-82
2024/02/09 16:45:42;;;;;;;1.57;1.00;;;12.60;98.20;;;;;;6160302;23;20442;-81
2024/02/09 16:48:24;;;;;;;1.57;1.00;;;12.50;98.20;;;;;;6133908;23;20461;-80
2024/02/09 16:51:24;;;;;;;1.60;1.10;;;12.50;98.20;;;;;;6143201;23;20535;-79
2024/02/09 16:54:02;;;;;;;1.50;1.10;;;12.50;98.20;;;;;;6150613;23;20488;-82
2024/02/09 16:56:43;;;;;;;;;;;;;;;;;;;;;